Time;durP1;ratioP1;P1;durP2;ratioP2;P2;SDS_P1;SDS_P2;PMS_P1;PMS_P2;Temp;Humidity;BMP_temperature;BMP_pressure;BME280_temperature;BME280_humidity;BME280_pressure;Samples;Min_cycle;Max_cycle;Signal;HPM_P1;HPM_P2
2023/12/20 00:00:48;;;;;;;53.63;26.50;;;;;;;2.20;89.20;100092.53;5052122;28;20021;-38
2023/12/20 00:03:13;;;;;;;51.58;26.38;;;;;;;2.12;89.05;100094.06;5052142;28;20099;-39
2023/12/20 00:05:41;;;;;;;49.30;26.55;;;;;;;2.19;91.06;100091.72;5051769;28;20432;-36
2023/12/20 00:08:06;;;;;;;48.38;25.45;;;;;;;2.18;91.12;100092.69;5051518;28;20032;-39
2023/12/20 00:10:31;;;;;;;49.70;25.60;;;;;;;2.83;88.33;100086.69;5051549;28;20017;-39
2023/12/20 00:12:57;;;;;;;49.38;25.80;;;;;;;2.49;87.63;100081.97;5050612;28;20503;-39
2023/12/20 00:15:22;;;;;;;51.17;26.55;;;;;;;2.67;88.17;100082.88;5051553;28;20094;-39
2023/12/20 00:17:47;;;;;;;51.88;27.48;;;;;;;2.82;86.90;100079.75;5051742;28;20029;-38
2023/12/20 00:20:13;;;;;;;48.75;25.98;;;;;;;2.80;85.90;100077.31;5051424;28;20056;-38
2023/12/20 00:22:38;;;;;;;51.55;26.58;;;;;;;2.85;86.22;100085.56;5051544;28;20021;-36
2023/12/20 00:25:04;;;;;;;54.95;28.98;;;;;;;3.36;82.68;100088.63;5051538;28;20017;-39
2023/12/20 00:27:29;;;;;;;58.60;28.45;;;;;;;3.45;79.67;100077.22;5051191;28;20174;-37
2023/12/20 00:29:55;;;;;;;63.13;30.05;;;;;;;3.60;77.99;100074.91;5050957;28;20147;-39
2023/12/20 00:32:20;;;;;;;61.53;30.10;;;;;;;3.52;78.96;100070.38;5051055;28;20025;-36
2023/12/20 00:34:45;;;;;;;60.38;28.00;;;;;;;3.46;77.94;100065.69;5050749;28;20037;-39
2023/12/20 00:37:11;;;;;;;54.10;26.40;;;;;;;3.12;79.40;100055.84;5051321;28;20032;-40
2023/12/20 00:39:36;;;;;;;48.00;24.58;;;;;;;3.19;80.29;100053.44;5051346;28;20025;-40
2023/12/20 00:42:02;;;;;;;55.42;25.00;;;;;;;3.28;81.60;100046.47;5051147;28;20477;-39
2023/12/20 00:44:27;;;;;;;47.67;25.00;;;;;;;3.07;81.61;100047.56;5050255;28;20013;-40
2023/12/20 00:46:52;;;;;;;58.45;26.98;;;;;;;2.48;81.71;100054.06;5051178;28;20021;-39
2023/12/20 00:49:18;;;;;;;53.95;26.45;;;;;;;2.25;85.06;100043.88;5050740;28;20169;-38
2023/12/20 00:51:43;;;;;;;48.60;25.73;;;;;;;3.19;85.09;100035.00;5050969;28;20032;-38
2023/12/20 00:54:09;;;;;;;56.80;28.63;;;;;;;3.83;84.10;100038.41;5050796;28;20024;-38
2023/12/20 00:56:35;;;;;;;58.08;29.50;;;;;;;4.31;82.24;100033.63;5049589;28;20092;-39
2023/12/20 00:59:00;;;;;;;90.38;35.53;;;;;;;4.63;85.16;100024.25;5050780;28;20025;-38
2023/12/20 01:01:25;;;;;;;51.60;24.40;;;;;;;3.55;84.47;100024.50;5050993;28;20086;-39
2023/12/20 01:03:51;;;;;;;44.75;22.52;;;;;;;2.96;86.76;100029.34;5050322;28;20173;-36
2023/12/20 01:06:17;;;;;;;44.03;21.88;;;;;;;2.94;85.67;100026.84;5050986;28;20023;-39
2023/12/20 01:08:42;;;;;;;47.17;23.67;;;;;;;2.94;85.59;100015.53;5050360;28;20434;-36
2023/12/20 01:11:07;;;;;;;47.25;23.38;;;;;;;3.57;84.97;100019.91;5049808;28;20455;-39
2023/12/20 01:13:33;;;;;;;42.15;21.27;;;;;;;3.59;85.03;100017.13;5050245;28;20093;-36
2023/12/20 01:15:58;;;;;;;35.63;18.25;;;;;;;3.06;86.63;100013.50;5050311;28;20029;-37
2023/12/20 01:18:24;;;;;;;33.92;17.80;;;;;;;3.85;85.37;100004.84;5050483;28;20021;-39
2023/12/20 01:20:49;;;;;;;31.02;18.05;;;;;;;3.60;85.54;100010.88;5050676;28;20033;-39
2023/12/20 01:23:14;;;;;;;32.78;17.33;;;;;;;3.18;83.21;99996.56;5050325;28;20021;-37
2023/12/20 01:25:40;;;;;;;32.15;17.80;;;;;;;3.48;84.60;99989.25;5050849;28;20438;-39
2023/12/20 01:28:05;;;;;;;32.90;18.00;;;;;;;3.42;86.40;99980.16;5050488;28;20096;-36
2023/12/20 01:30:31;;;;;;;32.28;18.02;;;;;;;2.98;85.79;99992.41;5050287;28;20442;-39
2023/12/20 01:32:56;;;;;;;32.40;18.30;;;;;;;2.90;88.05;99991.31;5050107;28;20044;-38
2023/12/20 01:35:21;;;;;;;41.03;19.88;;;;;;;3.48;87.17;99995.34;5049636;28;20497;-37
2023/12/20 01:37:47;;;;;;;37.75;19.92;;;;;;;3.02;87.27;99977.97;5050425;28;20017;-39
2023/12/20 01:40:12;;;;;;;43.65;21.98;;;;;;;2.54;88.58;99985.97;5050291;28;20397;-36
2023/12/20 01:42:37;;;;;;;39.85;22.15;;;;;;;3.58;85.94;99986.53;5050669;28;20017;-38
2023/12/20 01:45:03;;;;;;;42.45;21.88;;;;;;;2.90;87.22;99987.88;5050324;28;20021;-39
2023/12/20 01:47:29;;;;;;;38.63;20.67;;;;;;;2.93;86.76;99980.53;5050214;28;20048;-39
2023/12/20 01:49:56;;;;;;;42.25;21.83;;;;;;;3.74;85.15;99984.03;5050108;28;20073;-39
2023/12/20 01:52:22;;;;;;;40.58;20.63;;;;;;;3.15;86.11;99974.97;5050025;28;20493;-36
2023/12/20 01:54:48;;;;;;;34.40;18.15;;;;;;;2.52;86.08;99971.34;5051215;28;20382;-38
2023/12/20 01:57:14;;;;;;;33.60;18.90;;;;;;;2.21;88.69;99966.38;5054100;28;20028;-38
2023/12/20 01:59:40;;;;;;;37.55;19.75;;;;;;;3.38;86.26;99959.56;5054147;28;20291;-39
2023/12/20 02:02:07;;;;;;;34.50;18.33;;;;;;;2.58;89.17;99962.88;5053968;28;20494;-39
2023/12/20 02:04:33;;;;;;;33.78;18.00;;;;;;;2.05;88.47;99951.19;5053814;28;20482;-39
2023/12/20 02:06:59;;;;;;;32.85;18.63;;;;;;;2.86;88.63;99949.72;5054007;28;20036;-38
2023/12/20 02:09:24;;;;;;;31.83;17.40;;;;;;;2.78;88.83;99949.63;5054006;28;20020;-36
2023/12/20 02:11:50;;;;;;;29.55;16.15;;;;;;;2.35;87.85;99942.22;5053736;28;20078;-37
2023/12/20 02:14:15;;;;;;;33.28;17.65;;;;;;;2.92;86.47;99936.78;5054067;28;20039;-39
2023/12/20 02:16:41;;;;;;;30.83;16.52;;;;;;;3.03;86.29;99938.38;5053651;28;20028;-39
2023/12/20 02:19:15;;;;;;;31.15;16.27;;;;;;;2.54;86.00;99941.31;5053619;28;20023;-37
2023/12/20 02:21:40;;;;;;;29.40;15.90;;;;;;;2.33;87.32;99938.09;5053929;28;20029;-38
2023/12/20 02:24:06;;;;;;;30.67;16.63;;;;;;;2.93;85.90;99934.97;5054082;28;20373;-37
2023/12/20 02:26:35;;;;;;;27.30;14.88;;;;;;;2.40;88.08;99941.81;5053744;28;20534;-36
2023/12/20 02:29:01;;;;;;;29.23;14.73;;;;;;;1.89;85.91;99928.19;5052248;28;20059;-39
2023/12/20 02:31:26;;;;;;;28.40;15.35;;;;;;;2.67;86.91;99913.88;5053629;28;20048;-39
2023/12/20 02:33:52;;;;;;;24.45;13.50;;;;;;;2.39;89.25;99931.44;5053218;28;20481;-36
2023/12/20 02:36:17;;;;;;;28.38;15.02;;;;;;;1.87;86.53;99922.25;5053525;28;20039;-38
2023/12/20 02:38:42;;;;;;;30.00;15.73;;;;;;;2.46;87.38;99922.03;5053540;28;20032;-37
2023/12/20 02:41:08;;;;;;;32.95;15.93;;;;;;;2.46;87.93;99916.75;5053314;28;20051;-39
2023/12/20 02:43:33;;;;;;;27.48;14.27;;;;;;;1.94;87.11;99925.97;5053346;28;20099;-37
2023/12/20 02:45:58;;;;;;;28.13;14.75;;;;;;;1.83;88.68;99922.66;5052847;28;20404;-35
2023/12/20 02:48:24;;;;;;;30.25;15.27;;;;;;;2.72;86.58;99919.50;5053020;28;20025;-39
2023/12/20 02:50:49;;;;;;;28.10;14.25;;;;;;;2.10;89.01;99906.97;5053143;28;20052;-38
2023/12/20 02:53:15;;;;;;;26.85;13.50;;;;;;;1.44;87.12;99905.22;5051784;28;20381;-39
2023/12/20 02:55:40;;;;;;;24.50;13.93;;;;;;;1.13;89.49;99894.91;5052467;28;20025;-38
2023/12/20 02:58:06;;;;;;;26.60;14.35;;;;;;;1.51;93.69;99897.63;5053168;28;20116;-39
2023/12/20 03:00:31;;;;;;;34.33;17.15;;;;;;;1.59;93.32;99894.28;5052750;28;20205;-36
2023/12/20 03:02:56;;;;;;;41.25;19.33;;;;;;;1.35;92.14;99892.94;5052604;28;20040;-39
2023/12/20 03:05:22;;;;;;;33.95;16.10;;;;;;;1.02;89.76;99899.47;5052512;28;20493;-39
2023/12/20 03:07:47;;;;;;;34.38;17.20;;;;;;;1.26;90.50;99901.69;5050412;28;20017;-36
2023/12/20 03:10:12;;;;;;;35.90;16.67;;;;;;;2.08;89.75;99897.59;5052257;28;20032;-39
2023/12/20 03:12:38;;;;;;;29.77;15.02;;;;;;;1.71;91.23;99895.78;5052775;28;20024;-37
2023/12/20 03:15:04;;;;;;;35.10;14.82;;;;;;;1.26;88.31;99891.19;5052226;28;20441;-40
2023/12/20 03:17:29;;;;;;;30.33;15.98;;;;;;;2.29;89.00;99895.56;5052472;28;20024;-40
2023/12/20 03:19:54;;;;;;;29.20;15.57;;;;;;;1.84;90.56;99890.22;5052293;28;20473;-40
2023/12/20 03:22:20;;;;;;;30.58;14.85;;;;;;;1.13;86.92;99888.84;5051884;28;20414;-38
2023/12/20 03:24:45;;;;;;;34.58;16.08;;;;;;;1.22;90.97;99895.03;5052438;28;20560;-38
2023/12/20 03:27:10;;;;;;;32.58;15.15;;;;;;;1.99;89.83;99880.91;5052113;28;20023;-39
2023/12/20 03:29:36;;;;;;;27.98;14.75;;;;;;;1.86;88.78;99888.28;5051625;28;20100;-40
2023/12/20 03:32:01;;;;;;;29.67;13.38;;;;;;;1.02;90.26;99876.69;5052210;28;20051;-40
2023/12/20 03:34:27;;;;;;;30.35;16.13;;;;;;;1.98;90.78;99886.28;5050373;28;20045;-39
2023/12/20 03:36:52;;;;;;;28.83;14.23;;;;;;;1.84;91.50;99882.34;5051971;28;20025;-39
2023/12/20 03:39:17;;;;;;;28.67;14.50;;;;;;;1.61;86.67;99879.25;5051804;28;20466;-39
2023/12/20 03:41:43;;;;;;;27.52;15.35;;;;;;;1.85;89.10;99876.13;5051900;28;20029;-40
2023/12/20 03:44:08;;;;;;;30.10;15.35;;;;;;;2.28;87.70;99870.25;5052032;28;20021;-40
2023/12/20 03:46:33;;;;;;;29.33;13.88;;;;;;;2.06;87.30;99868.03;5051439;28;20024;-40
2023/12/20 03:48:59;;;;;;;26.85;13.73;;;;;;;1.64;86.75;99868.44;5051479;28;20020;-37
2023/12/20 03:51:24;;;;;;;28.70;15.05;;;;;;;2.60;86.21;99876.03;5051437;28;20111;-40
2023/12/20 03:53:49;;;;;;;30.30;15.88;;;;;;;2.47;86.39;99866.69;5051334;28;20025;-39
2023/12/20 03:56:15;;;;;;;24.35;12.48;;;;;;;1.76;82.80;99878.63;5051634;28;20401;-40
2023/12/20 03:58:40;;;;;;;24.20;13.20;;;;;;;2.12;85.47;99877.94;5051640;28;20029;-37
2023/12/20 04:01:14;;;;;;;24.73;13.55;;;;;;;2.32;86.67;99871.63;5051988;28;20025;-38
2023/12/20 04:03:40;;;;;;;25.90;13.73;;;;;;;2.04;83.01;99876.06;5051596;28;20113;-40
2023/12/20 04:06:06;;;;;;;26.70;14.40;;;;;;;1.81;83.74;99886.09;5051574;28;20017;-40
2023/12/20 04:08:31;;;;;;;29.60;15.65;;;;;;;2.52;84.37;99882.84;5051447;28;20563;-40
2023/12/20 04:10:56;;;;;;;30.58;16.10;;;;;;;2.38;82.30;99872.84;5051569;28;20028;-40
2023/12/20 04:13:22;;;;;;;24.08;13.20;;;;;;;1.58;80.35;99861.16;5051539;28;20032;-37
2023/12/20 04:15:49;;;;;;;25.60;13.93;;;;;;;2.01;84.21;99854.50;5051541;28;20052;-40
2023/12/20 04:18:15;;;;;;;29.92;14.68;;;;;;;2.39;85.04;99869.22;5051593;28;20036;-40
2023/12/20 04:20:40;;;;;;;24.85;12.45;;;;;;;2.19;79.85;99870.31;5051455;28;20025;-38
2023/12/20 04:23:06;;;;;;;21.83;12.30;;;;;;;1.76;76.46;99862.06;5051408;28;20497;-40
2023/12/20 04:25:31;;;;;;;28.35;13.98;;;;;;;2.19;81.79;99865.06;5051059;28;20477;-40
2023/12/20 04:27:56;;;;;;;24.15;13.38;;;;;;;2.14;85.14;99866.31;5050795;28;20021;-40
2023/12/20 04:30:21;;;;;;;21.95;11.60;;;;;;;1.85;77.28;99855.97;5051048;28;20123;-39
2023/12/20 04:32:47;;;;;;;24.23;12.38;;;;;;;1.73;82.34;99867.59;5051043;28;20485;-40
2023/12/20 04:35:12;;;;;;;27.90;14.48;;;;;;;2.09;85.87;99858.03;5051390;28;20032;-37
2023/12/20 04:37:38;;;;;;;22.63;12.70;;;;;;;2.26;79.89;99850.38;5051018;28;20033;-39
2023/12/20 04:40:05;;;;;;;22.38;11.38;;;;;;;1.65;78.53;99855.19;5051118;28;20432;-40
2023/12/20 04:42:30;;;;;;;25.20;13.07;;;;;;;2.10;82.19;99851.00;5051443;28;20028;-38
2023/12/20 04:44:56;;;;;;;24.55;13.68;;;;;;;2.42;83.40;99847.09;5051278;28;20028;-39
2023/12/20 04:47:21;;;;;;;25.35;11.93;;;;;;;1.49;76.08;99844.47;5051280;28;20033;-38
2023/12/20 04:49:47;;;;;;;24.48;12.75;;;;;;;1.10;81.92;99840.13;5051140;28;20025;-40
2023/12/20 04:52:12;;;;;;;24.30;13.27;;;;;;;1.99;82.37;99833.66;5050723;28;20440;-40
2023/12/20 04:54:37;;;;;;;28.60;14.57;;;;;;;1.73;84.09;99836.94;5050703;28;20102;-39
2023/12/20 04:57:03;;;;;;;24.48;12.70;;;;;;;1.33;77.01;99842.44;5050896;28;20040;-40
2023/12/20 04:59:28;;;;;;;29.05;14.43;;;;;;;1.37;81.75;99835.94;5050698;28;20025;-39
2023/12/20 05:01:54;;;;;;;32.63;15.52;;;;;;;2.12;82.33;99847.25;5050912;28;20401;-37
2023/12/20 05:04:19;;;;;;;27.17;13.98;;;;;;;1.88;77.50;99834.66;5049736;28;20349;-36
2023/12/20 05:06:45;;;;;;;25.98;13.07;;;;;;;1.49;76.28;99836.63;5050867;28;20036;-36
2023/12/20 05:09:11;;;;;;;30.27;14.95;;;;;;;1.74;81.81;99829.91;5050439;28;20029;-38
2023/12/20 05:11:36;;;;;;;31.67;14.85;;;;;;;2.04;84.38;99828.81;5050938;28;20114;-39
2023/12/20 05:14:01;;;;;;;25.52;14.07;;;;;;;1.69;77.22;99829.50;5051029;28;20033;-39
2023/12/20 05:16:27;;;;;;;24.90;13.02;;;;;;;0.96;78.70;99830.09;5051471;28;20117;-40
2023/12/20 05:18:52;;;;;;;32.50;15.05;;;;;;;1.62;82.82;99820.53;5051744;28;20040;-37
2023/12/20 05:21:18;;;;;;;31.15;14.85;;;;;;;2.34;82.65;99825.03;5052026;28;20405;-39
2023/12/20 05:23:43;;;;;;;25.48;13.98;;;;;;;2.43;75.69;99809.34;5051513;28;20449;-39
2023/12/20 05:26:08;;;;;;;25.60;13.10;;;;;;;1.57;74.13;99810.50;5051528;28;20021;-39
2023/12/20 05:28:34;;;;;;;30.15;12.35;;;;;;;3.50;100.00;99822.34;5051370;28;20529;-39
2023/12/20 05:30:59;;;;;;;38.50;19.98;;;;;;;4.68;94.97;99824.22;5047530;28;20087;-38
2023/12/20 05:33:25;;;;;;;33.85;16.58;;;;;;;4.69;87.95;99817.97;5031305;28;20060;-39
2023/12/20 05:35:50;;;;;;;25.77;14.52;;;;;;;4.14;82.40;99814.06;5031209;28;20108;-41
2023/12/20 05:38:15;;;;;;;29.35;15.55;;;;;;;3.67;80.39;99804.81;5031019;28;20029;-40
2023/12/20 05:40:41;;;;;;;30.88;16.38;;;;;;;3.60;80.13;99805.59;5030804;28;20072;-38
2023/12/20 05:43:06;;;;;;;32.28;16.70;;;;;;;3.36;80.96;99803.69;5031393;28;20029;-40
2023/12/20 05:45:31;;;;;;;30.60;17.67;;;;;;;3.23;80.13;99791.75;5031447;28;20040;-41
2023/12/20 05:47:57;;;;;;;33.75;17.38;;;;;;;3.15;79.42;99799.59;5031219;28;20029;-39
2023/12/20 05:50:22;;;;;;;36.42;18.75;;;;;;;2.90;80.19;99794.16;5031005;28;20072;-39
2023/12/20 05:52:47;;;;;;;34.00;18.55;;;;;;;2.73;80.85;99787.13;5030456;28;20071;-40
2023/12/20 05:55:13;;;;;;;33.00;18.13;;;;;;;2.83;81.17;99790.47;5031142;28;20029;-42
2023/12/20 05:57:38;;;;;;;39.20;19.70;;;;;;;2.35;81.41;99797.78;5030570;28;20476;-44
2023/12/20 06:00:04;;;;;;;37.08;20.33;;;;;;;2.18;82.31;99790.72;5030866;28;20029;-40
2023/12/20 06:02:30;;;;;;;36.28;19.05;;;;;;;2.13;83.43;99785.91;5032934;28;20484;-40
2023/12/20 06:04:55;;;;;;;36.35;19.02;;;;;;;2.51;81.40;99777.88;5049233;28;20061;-40
2023/12/20 06:07:21;;;;;;;31.25;18.27;;;;;;;2.89;80.36;99781.16;5049060;28;20085;-41
2023/12/20 06:09:46;;;;;;;33.58;18.10;;;;;;;2.85;81.31;99762.25;5049506;28;20029;-38
2023/12/20 06:12:11;;;;;;;35.28;18.60;;;;;;;3.22;82.10;99786.63;5048959;28;20078;-39
2023/12/20 06:14:37;;;;;;;35.63;19.60;;;;;;;3.45;80.65;99779.91;5049364;28;20241;-40
2023/12/20 06:17:02;;;;;;;35.60;19.48;;;;;;;3.53;80.63;99781.75;5047140;28;20385;-39
2023/12/20 06:19:28;;;;;;;33.00;18.38;;;;;;;3.66;79.83;99786.56;5046168;28;20029;-38
2023/12/20 06:21:53;;;;;;;31.05;17.70;;;;;;;3.71;79.80;99792.16;5050653;28;20029;-40
2023/12/20 06:24:19;;;;;;;34.15;18.15;;;;;;;3.78;80.13;99790.56;5051262;28;20029;-40
2023/12/20 06:26:44;;;;;;;32.75;18.25;;;;;;;3.96;79.33;99774.69;5049832;28;20052;-39
2023/12/20 06:29:09;;;;;;;33.28;19.20;;;;;;;4.37;78.35;99787.94;5050235;28;20477;-40
2023/12/20 06:31:35;;;;;;;39.50;19.98;;;;;;;4.35;77.26;99778.56;5050243;28;20087;-39
2023/12/20 06:34:01;;;;;;;37.78;19.60;;;;;;;4.41;77.73;99773.44;5048549;28;20049;-40
2023/12/20 06:36:26;;;;;;;39.10;20.38;;;;;;;4.74;76.99;99762.94;5050465;28;20405;-40
2023/12/20 06:38:52;;;;;;;37.72;20.05;;;;;;;4.96;76.51;99774.63;5048907;28;20040;-39
2023/12/20 06:41:18;;;;;;;32.83;17.85;;;;;;;4.64;77.77;99781.53;5050819;28;20386;-40
2023/12/20 06:43:43;;;;;;;35.63;18.20;;;;;;;4.88;77.47;99785.19;5053251;28;20489;-40
2023/12/20 06:46:09;;;;;;;30.63;17.35;;;;;;;4.97;77.92;99783.34;5052151;28;20021;-39
2023/12/20 06:48:35;;;;;;;30.02;17.98;;;;;;;5.02;78.37;99775.78;5053534;28;20025;-42
2023/12/20 06:51:04;;;;;;;31.85;18.13;;;;;;;5.61;76.20;99783.41;5053879;28;20881;-40
2023/12/20 06:53:29;;;;;;;27.23;16.60;;;;;;;5.02;77.42;99771.31;5053567;28;20028;-41
2023/12/20 06:55:56;;;;;;;34.30;17.55;;;;;;;4.74;79.14;99770.88;5054233;28;20083;-44
2023/12/20 06:58:21;;;;;;;31.63;16.83;;;;;;;4.88;79.89;99767.53;5054505;28;20035;-41
2023/12/20 07:00:47;;;;;;;28.23;15.98;;;;;;;4.73;80.50;99765.75;5054619;28;20025;-40
2023/12/20 07:03:12;;;;;;;29.83;16.35;;;;;;;5.01;80.21;99774.97;5054388;28;20032;-38
2023/12/20 07:05:37;;;;;;;30.33;15.07;;;;;;;5.42;78.88;99774.06;5053775;28;20020;-39
2023/12/20 07:08:03;;;;;;;28.30;15.88;;;;;;;5.90;75.66;99763.47;5053845;28;20539;-39
2023/12/20 07:10:29;;;;;;;26.75;14.52;;;;;;;5.98;74.45;99761.66;5052307;28;20025;-41
2023/12/20 07:12:55;;;;;;;36.30;16.70;;;;;;;6.45;73.35;99759.88;5053480;28;20024;-39
2023/12/20 07:15:21;;;;;;;23.40;12.80;;;;;;;6.25;73.16;99754.25;5051474;28;20024;-39
2023/12/20 07:17:46;;;;;;;24.58;14.13;;;;;;;6.49;72.08;99758.50;5051720;28;20048;-39
2023/12/20 07:20:12;;;;;;;26.98;14.25;;;;;;;6.45;73.56;99767.81;5053177;28;20406;-39
2023/12/20 07:22:37;;;;;;;24.70;13.88;;;;;;;6.98;71.20;99742.25;5052916;28;20111;-40
2023/12/20 07:25:03;;;;;;;22.60;11.85;;;;;;;7.54;69.21;99752.44;5051181;28;20021;-40
2023/12/20 07:27:29;;;;;;;18.02;11.45;;;;;;;8.63;66.49;99746.31;5051420;28;20021;-41
2023/12/20 07:29:54;;;;;;;19.80;11.07;;;;;;;8.50;64.47;99736.41;5048142;28;20541;-43
2023/12/20 07:32:19;;;;;;;18.88;11.30;;;;;;;9.33;62.72;99741.13;5052340;28;20547;-37
2023/12/20 07:34:45;;;;;;;18.70;11.05;;;;;;;10.02;59.65;99713.63;5049755;28;20033;-38
2023/12/20 07:37:11;;;;;;;19.08;11.52;;;;;;;11.07;56.26;99743.22;5052374;28;20126;-40
2023/12/20 07:39:37;;;;;;;16.65;10.48;;;;;;;11.63;54.25;99738.38;5050960;28;20024;-39
2023/12/20 07:42:03;;;;;;;17.48;9.95;;;;;;;11.95;53.36;99741.16;5051333;28;20064;-40
2023/12/20 07:44:28;;;;;;;14.88;9.38;;;;;;;11.87;53.26;99747.50;5052224;28;20106;-39
2023/12/20 07:46:53;;;;;;;18.42;9.88;;;;;;;12.29;52.07;99739.94;5050566;28;20027;-37
2023/12/20 07:49:19;;;;;;;17.17;10.30;;;;;;;12.61;51.11;99743.41;5050771;28;20477;-41
2023/12/20 07:51:45;;;;;;;14.77;9.60;;;;;;;13.02;49.61;99728.72;5052157;28;20032;-40
2023/12/20 07:54:10;;;;;;;17.02;9.90;;;;;;;13.49;48.04;99731.75;5049889;28;20025;-39
2023/12/20 07:56:36;;;;;;;15.73;10.20;;;;;;;12.58;48.76;99732.34;5050322;28;20155;-40
2023/12/20 07:59:01;;;;;;;16.33;10.77;;;;;;;11.08;52.88;99728.88;5047105;28;20119;-38
2023/12/20 08:01:26;;;;;;;14.05;9.55;;;;;;;10.50;54.85;99716.19;5051843;28;20021;-37
2023/12/20 08:03:52;;;;;;;19.00;11.88;;;;;;;10.66;54.89;99704.34;5049815;28;20016;-39
2023/12/20 08:06:17;;;;;;;21.75;11.63;;;;;;;10.41;55.48;99716.59;5050238;28;20108;-37
2023/12/20 08:08:43;;;;;;;17.52;10.52;;;;;;;11.41;52.10;99725.31;5049462;28;20091;-39
2023/12/20 08:11:09;;;;;;;21.55;10.63;;;;;;;10.82;53.06;99719.06;5056954;28;20106;-39
2023/12/20 08:13:34;;;;;;;16.50;10.55;;;;;;;10.35;53.63;99707.56;5053748;28;20051;-38
2023/12/20 08:15:59;;;;;;;19.58;11.50;;;;;;;9.90;55.75;99715.19;5051510;28;20021;-39
2023/12/20 08:18:25;;;;;;;15.70;10.13;;;;;;;10.28;55.45;99707.53;5050808;28;20041;-37
2023/12/20 08:20:52;;;;;;;15.60;9.68;;;;;;;10.46;54.13;99708.81;5051268;28;20032;-37
2023/12/20 08:23:18;;;;;;;20.45;10.00;;;;;;;10.30;54.81;99709.97;5049974;28;20031;-37
2023/12/20 08:25:43;;;;;;;17.38;10.20;;;;;;;10.10;54.78;99704.63;5047417;28;20112;-38
2023/12/20 08:28:09;;;;;;;18.33;10.57;;;;;;;10.27;55.21;99699.75;5053449;28;20519;-39
2023/12/20 08:30:34;;;;;;;18.27;10.52;;;;;;;10.80;54.56;99696.34;5049262;28;20022;-40
2023/12/20 08:33:00;;;;;;;15.27;9.80;;;;;;;11.10;52.07;99691.34;5060169;28;20749;-43
2023/12/20 08:35:26;;;;;;;15.95;10.20;;;;;;;10.49;53.87;99689.78;5051684;28;20025;-38
2023/12/20 08:37:51;;;;;;;19.08;10.25;;;;;;;10.37;53.77;99687.72;5049810;28;20040;-37
2023/12/20 08:40:16;;;;;;;18.85;10.45;;;;;;;10.13;56.07;99688.28;5047329;28;20032;-42
2023/12/20 08:42:42;;;;;;;15.90;10.55;;;;;;;11.13;54.35;99677.63;5050208;28;20488;-41
2023/12/20 08:45:07;;;;;;;15.48;9.95;;;;;;;11.43;52.83;99677.97;5044672;28;20040;-37
2023/12/20 08:47:33;;;;;;;16.58;10.10;;;;;;;11.12;52.99;99668.03;5048693;28;20020;-40
2023/12/20 08:49:59;;;;;;;18.98;10.68;;;;;;;10.74;52.67;99658.88;5047971;28;20363;-40
2023/12/20 08:52:27;;;;;;;17.42;11.10;;;;;;;10.81;53.59;99652.72;5051676;28;20107;-41
2023/12/20 08:54:53;;;;;;;17.02;9.65;;;;;;;11.31;51.89;99656.50;5051404;28;20087;-38
2023/12/20 08:57:23;;;;;;;15.30;9.95;;;;;;;10.77;52.42;99641.66;5051112;28;20024;-39
2023/12/20 08:59:51;;;;;;;17.00;10.30;;;;;;;10.12;54.77;99630.81;5051207;28;20028;-37
2023/12/20 09:02:17;;;;;;;15.95;10.13;;;;;;;9.66;57.02;99634.19;5051195;28;20021;-38
2023/12/20 09:04:43;;;;;;;15.93;10.45;;;;;;;9.86;57.40;99636.88;5050764;28;20413;-41
2023/12/20 09:07:29;;;;;;;18.85;11.90;;;;;;;10.43;55.44;99629.41;5051067;28;20458;-39
2023/12/20 09:09:54;;;;;;;18.33;11.13;;;;;;;9.81;56.73;99623.41;5050905;28;20021;-38
2023/12/20 09:12:20;;;;;;;20.23;11.45;;;;;;;9.71;56.69;99611.31;5051408;28;20455;-38
2023/12/20 09:14:49;;;;;;;22.73;12.20;;;;;;;9.70;56.62;99606.19;5051330;28;20020;-40
2023/12/20 09:17:16;;;;;;;24.08;13.05;;;;;;;9.81;56.79;99596.81;5051126;28;20382;-39
2023/12/20 09:19:43;;;;;;;19.55;11.90;;;;;;;10.28;55.81;99606.47;5050667;28;20556;-38
2023/12/20 09:22:09;;;;;;;20.35;11.68;;;;;;;10.27;56.52;99585.41;5051587;28;20083;-40
2023/12/20 09:24:34;;;;;;;19.08;11.25;;;;;;;10.21;56.00;99591.53;5050955;28;20401;-40
2023/12/20 09:26:59;;;;;;;18.10;11.15;;;;;;;10.24;55.13;99585.78;5051138;28;20013;-41
2023/12/20 09:29:25;;;;;;;19.13;11.73;;;;;;;10.43;55.65;99585.00;5051139;28;20536;-40
2023/12/20 09:31:50;;;;;;;16.02;11.05;;;;;;;11.09;53.89;99589.34;5050609;28;20029;-38
2023/12/20 09:34:17;;;;;;;17.77;11.23;;;;;;;10.69;54.89;99581.47;5050589;28;20049;-40
2023/12/20 09:36:46;;;;;;;17.10;11.18;;;;;;;10.79;53.58;99581.03;5051403;28;20021;-40
2023/12/20 09:39:13;;;;;;;19.00;10.98;;;;;;;10.25;55.54;99561.66;5051026;28;20039;-39
2023/12/20 09:41:43;;;;;;;18.75;12.00;;;;;;;10.57;56.33;99556.53;5042889;28;20080;-40
2023/12/20 09:44:14;;;;;;;25.92;13.20;;;;;;;11.44;54.09;99553.53;5048461;28;20033;-38
2023/12/20 09:46:43;;;;;;;20.65;12.48;;;;;;;11.31;52.09;99555.25;5034256;28;20465;-41
2023/12/20 09:49:08;;;;;;;21.23;11.30;;;;;;;11.04;53.82;99540.41;5031127;28;20116;-37
2023/12/20 09:51:35;;;;;;;16.38;10.13;;;;;;;11.05;52.56;99534.06;5043775;28;20108;-40
2023/12/20 09:54:03;;;;;;;20.48;10.50;;;;;;;10.79;53.36;99524.34;5050929;28;20024;-43
2023/12/20 09:56:29;;;;;;;14.73;9.82;;;;;;;11.57;52.34;99531.34;5051268;28;20373;-38
2023/12/20 09:58:55;;;;;;;17.23;10.20;;;;;;;11.40;51.48;99529.16;5051455;28;20021;-39
2023/12/20 10:01:21;;;;;;;18.10;10.82;;;;;;;11.66;51.96;99520.19;5051675;28;20479;-40
2023/12/20 10:03:46;;;;;;;16.92;10.20;;;;;;;12.19;50.33;99515.50;5051033;28;20025;-38
2023/12/20 10:06:12;;;;;;;21.17;10.35;;;;;;;11.76;50.47;99514.38;5050666;28;20112;-39
2023/12/20 10:08:39;;;;;;;16.77;10.85;;;;;;;11.46;51.95;99503.50;5050829;28;20055;-39
2023/12/20 10:11:05;;;;;;;17.17;9.93;;;;;;;12.02;50.97;99492.06;5050943;28;20465;-38
2023/12/20 10:13:30;;;;;;;16.40;9.57;;;;;;;12.51;49.47;99497.53;5050328;28;20071;-40
2023/12/20 10:15:57;;;;;;;19.05;9.43;;;;;;;13.04;48.52;99491.56;5051006;28;20078;-38
2023/12/20 10:18:23;;;;;;;15.35;9.73;;;;;;;13.57;47.79;99490.00;5054484;28;20021;-38
2023/12/20 10:20:49;;;;;;;17.92;9.85;;;;;;;13.95;47.03;99490.66;5054461;28;20214;-43
2023/12/20 10:23:16;;;;;;;14.73;9.48;;;;;;;13.96;44.94;99482.41;5054128;28;20025;-39
2023/12/20 10:25:41;;;;;;;17.25;9.32;;;;;;;13.92;45.13;99475.88;5054394;28;20044;-40
2023/12/20 10:28:23;;;;;;;16.73;10.93;;;;;;;14.64;42.91;99480.16;5054552;28;20390;-37
2023/12/20 10:30:48;;;;;;;17.65;10.48;;;;;;;14.55;44.30;99477.00;5054037;28;20504;-38
2023/12/20 10:33:24;;;;;;;18.05;10.68;;;;;;;14.70;42.47;99459.63;5054170;28;20140;-40
2023/12/20 10:35:50;;;;;;;18.88;10.18;;;;;;;14.55;42.65;99460.94;5050427;28;20033;-39
2023/12/20 10:38:15;;;;;;;18.08;9.88;;;;;;;14.57;42.23;99455.38;5044010;28;20041;-39
2023/12/20 10:40:41;;;;;;;16.95;10.18;;;;;;;14.71;42.78;99461.28;5037088;28;20035;-41
2023/12/20 10:43:08;;;;;;;18.40;10.05;;;;;;;15.10;41.56;99448.91;5053546;28;20025;-41
2023/12/20 10:45:34;;;;;;;20.27;11.40;;;;;;;15.32;40.85;99434.81;5046944;28;20113;-40
2023/12/20 10:48:01;;;;;;;15.15;9.50;;;;;;;15.31;40.31;99425.97;5038418;28;20159;-41
2023/12/20 10:50:28;;;;;;;12.85;8.63;;;;;;;15.29;40.65;99427.25;5051808;28;20644;-39
2023/12/20 10:52:55;;;;;;;11.93;8.13;;;;;;;15.42;40.44;99418.88;5053228;28;20025;-41
2023/12/20 10:55:22;;;;;;;13.88;8.65;;;;;;;15.42;39.25;99410.84;5052945;28;20028;-39
2023/12/20 10:57:51;;;;;;;14.23;9.30;;;;;;;15.41;40.44;99417.28;5049011;28;20405;-39
2023/12/20 11:00:17;;;;;;;15.23;9.18;;;;;;;15.19;41.37;99412.63;5054614;28;20204;-37
2023/12/20 11:02:43;;;;;;;13.90;9.30;;;;;;;15.33;39.63;99404.28;5041646;28;20033;-40
2023/12/20 11:05:15;;;;;;;15.68;9.35;;;;;;;15.49;40.81;99406.13;5042955;28;20024;-41
2023/12/20 11:07:49;;;;;;;17.50;9.18;;;;;;;15.77;40.35;99396.41;5043890;28;20559;-40
2023/12/20 11:10:22;;;;;;;15.50;9.43;;;;;;;15.88;40.50;99386.63;5040498;28;20025;-41
2023/12/20 11:13:02;;;;;;;14.85;9.48;;;;;;;15.72;40.72;99378.31;5044014;28;20103;-41
2023/12/20 11:15:28;;;;;;;16.38;9.50;;;;;;;15.73;38.92;99382.69;5042852;28;20043;-43